Time;durP1;ratioP1;P1;durP2;ratioP2;P2;SDS_P1;SDS_P2;PMS_P1;PMS_P2;Temp;Humidity;BMP_temperature;BMP_pressure;BME280_temperature;BME280_humidity;BME280_pressure;Samples;Min_cycle;Max_cycle;Signal;HPM_P1;HPM_P2
2021/05/13 00:01:00;;;;;;;67.65;12.32;;;;;;;17.26;52.74;100285.91;5005041;28;20034;-69
2021/05/13 00:03:26;;;;;;;55.72;12.82;;;;;;;17.40;51.98;100277.38;5003864;28;20038;-70
2021/05/13 00:05:54;;;;;;;46.05;12.57;;;;;;;17.46;51.24;100287.84;5005590;28;20037;-68
2021/05/13 00:08:20;;;;;;;56.20;11.27;;;;;;;17.59;51.33;100279.66;5005684;28;20076;-68
2021/05/13 00:10:46;;;;;;;54.55;11.63;;;;;;;17.64;51.03;100277.50;5006022;28;20117;-68
2021/05/13 00:13:13;;;;;;;45.28;11.98;;;;;;;17.72;50.54;100275.00;5005651;28;20029;-68
2021/05/13 00:15:42;;;;;;;49.67;10.48;;;;;;;17.77;50.44;100274.81;5006753;28;20076;-69
2021/05/13 00:18:09;;;;;;;59.70;11.57;;;;;;;17.79;50.39;100270.56;5005133;28;20257;-67
2021/05/13 00:20:42;;;;;;;48.53;10.70;;;;;;;17.87;50.23;100265.31;5004262;28;20041;-68
2021/05/13 00:23:09;;;;;;;47.95;10.05;;;;;;;17.95;49.51;100259.78;5002381;28;20104;-68
2021/05/13 00:25:36;;;;;;;48.63;12.32;;;;;;;17.98;49.47;100255.50;5002667;28;20076;-68
2021/05/13 00:28:03;;;;;;;41.97;10.63;;;;;;;18.00;49.54;100253.22;5003271;28;20393;-68
2021/05/13 00:30:29;;;;;;;39.67;10.47;;;;;;;17.99;49.90;100251.63;5008272;28;20132;-68
2021/05/13 00:32:55;;;;;;;33.83;10.80;;;;;;;18.03;49.68;100247.03;5001905;28;20367;-68
2021/05/13 00:35:22;;;;;;;34.83;10.05;;;;;;;18.05;49.61;100241.19;5005205;28;20041;-68
2021/05/13 00:37:48;;;;;;;32.60;10.30;;;;;;;18.10;49.37;100244.53;5003425;28;20497;-69
2021/05/13 00:40:17;;;;;;;42.25;11.43;;;;;;;18.09;49.19;100244.88;5007554;28;20394;-68
2021/05/13 00:42:44;;;;;;;35.63;10.52;;;;;;;18.13;49.25;100245.78;5004139;28;20029;-68
2021/05/13 00:45:12;;;;;;;35.92;9.75;;;;;;;18.14;49.53;100250.94;5006730;28;20582;-67
2021/05/13 00:47:46;;;;;;;31.63;9.65;;;;;;;18.17;49.30;100246.72;5003117;28;20044;-68
2021/05/13 00:50:14;;;;;;;31.33;9.75;;;;;;;18.17;49.24;100250.28;5004143;28;20119;-67
2021/05/13 00:52:41;;;;;;;37.03;10.65;;;;;;;18.25;49.32;100250.53;5002821;28;20073;-68
2021/05/13 00:55:10;;;;;;;30.35;10.05;;;;;;;18.23;49.25;100252.81;5004658;28;20111;-68
2021/05/13 00:57:40;;;;;;;31.15;9.30;;;;;;;18.27;48.98;100250.97;5000822;28;20054;-68
2021/05/13 01:00:28;;;;;;;29.67;9.38;;;;;;;18.31;49.44;100249.13;5004143;28;20068;-68
2021/05/13 01:02:52;;;;;;;32.47;9.40;;;;;;;18.32;49.40;100256.25;5000698;28;20497;-67
2021/05/13 01:05:18;;;;;;;31.17;9.55;;;;;;;18.34;49.24;100265.81;5002077;28;20069;-66
2021/05/13 01:07:44;;;;;;;31.77;9.68;;;;;;;18.38;48.90;100257.66;5002663;28;20474;-66
2021/05/13 01:10:11;;;;;;;28.30;7.95;;;;;;;18.40;49.00;100258.09;5001484;28;20034;-67
2021/05/13 01:12:40;;;;;;;31.60;8.85;;;;;;;18.44;48.89;100261.00;5001862;28;20042;-67
2021/05/13 01:15:19;;;;;;;24.55;8.90;;;;;;;18.43;48.84;100259.38;5015851;28;20050;-69
2021/05/13 01:17:57;;;;;;;23.63;8.35;;;;;;;18.46;48.92;100258.69;5001533;28;20041;-68
2021/05/13 01:20:25;;;;;;;24.73;8.95;;;;;;;18.46;48.81;100262.25;5002529;28;20116;-67
2021/05/13 01:22:52;;;;;;;27.50;8.30;;;;;;;18.52;48.54;100268.34;5002095;28;20386;-68
2021/05/13 01:25:19;;;;;;;26.58;8.52;;;;;;;18.49;48.73;100269.00;5007302;28;20030;-68
2021/05/13 01:27:45;;;;;;;26.98;9.10;;;;;;;18.51;48.46;100275.78;5005821;28;20062;-67
2021/05/13 01:30:11;;;;;;;28.08;8.82;;;;;;;18.52;48.84;100274.66;5008197;28;20452;-67
2021/05/13 01:32:38;;;;;;;24.13;8.23;;;;;;;18.54;48.50;100277.06;5007063;28;20057;-66
2021/05/13 01:35:04;;;;;;;25.90;7.53;;;;;;;18.55;48.57;100272.34;5010479;28;20034;-66
2021/05/13 01:37:30;;;;;;;26.25;8.88;;;;;;;18.53;48.50;100270.75;5005194;28;20042;-66
2021/05/13 01:39:56;;;;;;;28.33;8.65;;;;;;;18.56;48.46;100271.19;5010207;28;20655;-68
2021/05/13 01:42:23;;;;;;;26.35;8.50;;;;;;;18.59;48.27;100265.00;5004730;28;20041;-67
2021/05/13 01:44:49;;;;;;;21.40;8.15;;;;;;;18.57;48.37;100259.81;5008764;28;20478;-67
2021/05/13 01:47:15;;;;;;;22.00;7.65;;;;;;;18.58;48.44;100264.19;5008394;28;20046;-67
2021/05/13 01:49:41;;;;;;;23.88;7.72;;;;;;;18.58;48.40;100266.97;5007443;28;20046;-66
2021/05/13 01:52:07;;;;;;;21.63;7.60;;;;;;;18.61;48.55;100273.75;5003252;28;20042;-66
2021/05/13 01:54:33;;;;;;;27.08;8.07;;;;;;;18.64;48.48;100273.88;5009201;28;20077;-66
2021/05/13 01:57:04;;;;;;;21.13;6.90;;;;;;;18.64;48.43;100268.34;5004580;28;20402;-67
2021/05/13 01:59:31;;;;;;;15.32;7.13;;;;;;;18.66;48.40;100266.03;5004825;28;20029;-67
2021/05/13 02:01:58;;;;;;;16.65;7.07;;;;;;;18.67;48.65;100258.56;5005787;28;20040;-68
2021/05/13 02:04:24;;;;;;;24.65;7.65;;;;;;;18.72;48.61;100244.56;5006506;28;20042;-67
2021/05/13 02:06:51;;;;;;;20.23;7.40;;;;;;;18.78;49.38;100247.88;5005304;28;20034;-65
2021/05/13 02:09:17;;;;;;;24.17;7.75;;;;;;;18.79;49.08;100241.22;5007975;28;20030;-67
2021/05/13 02:11:43;;;;;;;21.35;7.53;;;;;;;18.84;48.95;100241.78;5009297;28;20038;-67
2021/05/13 02:14:09;;;;;;;19.55;7.80;;;;;;;18.88;48.66;100241.13;5008503;28;20427;-66
2021/05/13 02:16:35;;;;;;;20.33;6.88;;;;;;;18.90;48.40;100242.38;5009410;28;20069;-65
2021/05/13 02:19:01;;;;;;;23.05;7.13;;;;;;;18.90;48.48;100239.63;5010235;28;20173;-66
2021/05/13 02:21:27;;;;;;;20.30;7.03;;;;;;;18.92;48.34;100236.53;5008935;28;20034;-66
2021/05/13 02:23:54;;;;;;;27.48;7.30;;;;;;;18.92;48.33;100240.09;5010107;28;20554;-67
2021/05/13 02:26:21;;;;;;;25.02;7.63;;;;;;;18.99;48.19;100232.03;5007922;28;20041;-67
2021/05/13 02:28:47;;;;;;;24.02;6.68;;;;;;;18.98;48.09;100230.41;5006927;28;20122;-66
2021/05/13 02:31:14;;;;;;;22.05;6.88;;;;;;;19.01;48.03;100221.44;5006845;28;20075;-66
2021/05/13 02:33:41;;;;;;;21.05;7.15;;;;;;;19.01;47.82;100213.16;5006276;28;20490;-65
2021/05/13 02:36:10;;;;;;;16.92;6.97;;;;;;;19.02;47.87;100206.50;5007765;28;20133;-67
2021/05/13 02:38:36;;;;;;;21.58;6.78;;;;;;;19.03;47.61;100208.13;5008603;28;20034;-65
2021/05/13 02:41:03;;;;;;;15.55;6.65;;;;;;;19.05;47.66;100205.00;5006951;28;20682;-65
2021/05/13 02:43:29;;;;;;;18.25;6.38;;;;;;;19.05;47.60;100205.00;5007550;28;20148;-68
2021/05/13 02:45:55;;;;;;;21.45;6.88;;;;;;;19.02;48.05;100205.72;5002796;28;20034;-68
2021/05/13 02:48:21;;;;;;;18.52;6.20;;;;;;;19.03;48.04;100205.38;5008023;28;20045;-68
2021/05/13 02:50:47;;;;;;;18.98;7.18;;;;;;;19.02;48.12;100214.00;5007488;28;20113;-69
2021/05/13 02:53:14;;;;;;;15.93;6.15;;;;;;;19.02;48.04;100216.75;5010436;28;20037;-70
2021/05/13 02:55:40;;;;;;;17.17;6.60;;;;;;;18.99;48.06;100220.22;5006925;28;20069;-69
2021/05/13 02:58:06;;;;;;;14.45;6.18;;;;;;;18.99;48.09;100236.75;5010494;28;20532;-67
2021/05/13 03:00:48;;;;;;;12.98;6.38;;;;;;;19.01;48.08;100232.47;5009435;28;20067;-67
2021/05/13 03:03:14;;;;;;;23.42;7.07;;;;;;;18.98;48.45;100237.91;5004906;28;20037;-68
2021/05/13 03:05:40;;;;;;;21.80;6.22;;;;;;;19.01;48.22;100243.50;5009511;28;20451;-67
2021/05/13 03:08:06;;;;;;;16.90;6.05;;;;;;;19.05;48.27;100229.84;5007170;28;20022;-68
2021/05/13 03:13:10;;;;;;;17.05;6.07;;;;;;;19.08;48.46;100218.09;5006408;28;20033;-66
2021/05/13 03:15:36;;;;;;;22.27;6.32;;;;;;;19.07;48.48;100215.69;5006527;28;20375;-68
2021/05/13 03:18:03;;;;;;;14.20;6.20;;;;;;;19.03;48.46;100215.59;5003876;28;20034;-68
2021/05/13 03:20:34;;;;;;;19.00;5.97;;;;;;;19.05;48.49;100210.53;5009473;28;20034;-68
2021/05/13 03:23:00;;;;;;;16.70;6.28;;;;;;;19.06;48.36;100208.56;5004239;28;20053;-68
2021/05/13 03:25:30;;;;;;;13.15;5.72;;;;;;;19.08;48.33;100201.56;5006228;28;20030;-68
2021/05/13 03:28:07;;;;;;;19.85;6.60;;;;;;;19.07;48.21;100191.69;5007771;28;20076;-68
2021/05/13 03:30:37;;;;;;;;;;;;;;;19.08;48.43;100195.25;5009173;28;20509;-67
2021/05/13 03:33:04;;;;;;;13.77;4.90;;;;;;;19.10;48.30;100195.69;5003978;28;19917;-68
2021/05/13 03:35:30;;;;;;;16.13;5.15;;;;;;;19.14;48.41;100199.34;5004335;28;20113;-66
2021/05/13 03:37:56;;;;;;;17.88;6.05;;;;;;;19.16;48.27;100202.56;5006803;28;20041;-66
2021/05/13 03:40:22;;;;;;;15.27;5.45;;;;;;;19.14;48.45;100196.59;5009580;28;20040;-67
2021/05/13 03:42:48;;;;;;;15.25;5.93;;;;;;;19.12;48.23;100188.66;5006398;28;20717;-66
2021/05/13 03:45:15;;;;;;;13.82;5.00;;;;;;;19.13;48.46;100192.25;5004793;28;20489;-67
2021/05/13 03:47:41;;;;;;;17.73;5.60;;;;;;;19.11;48.14;100189.03;5003266;28;20056;-68
2021/05/13 03:50:07;;;;;;;15.18;5.35;;;;;;;19.14;48.38;100194.66;5008000;28;20139;-68
2021/05/13 03:52:34;;;;;;;16.00;5.72;;;;;;;19.14;48.22;100180.03;5005204;28;20040;-67
2021/05/13 03:55:00;;;;;;;15.63;5.72;;;;;;;19.14;48.16;100183.63;5008944;28;20505;-67
2021/05/13 03:57:26;;;;;;;14.18;5.43;;;;;;;19.16;48.21;100178.53;5006358;28;20030;-68
2021/05/13 03:59:55;;;;;;;16.33;5.18;;;;;;;19.21;48.01;100172.00;5007407;28;20045;-69
2021/05/13 04:02:39;;;;;;;10.57;4.85;;;;;;;19.22;48.19;100159.78;5001123;28;20042;-68
2021/05/13 04:05:06;;;;;;;14.15;6.18;;;;;;;19.26;48.14;100152.41;5008950;28;20390;-68
2021/05/13 04:07:37;;;;;;;13.68;5.03;;;;;;;19.29;47.84;100160.00;5006925;28;20493;-68
2021/05/13 04:10:06;;;;;;;9.70;4.68;;;;;;;19.34;47.85;100156.19;5006476;28;20046;-66
2021/05/13 04:12:36;;;;;;;15.25;5.38;;;;;;;19.37;48.22;100161.81;5005616;28;20033;-67
2021/05/13 04:15:03;;;;;;;23.52;6.18;;;;;;;19.35;48.57;100157.78;5005293;28;20042;-68
2021/05/13 04:17:29;;;;;;;19.58;4.93;;;;;;;19.42;48.66;100165.47;5003156;28;20449;-66
2021/05/13 04:19:55;;;;;;;16.15;5.20;;;;;;;19.44;48.15;100169.44;5008318;28;20046;-67
2021/05/13 04:22:21;;;;;;;15.40;5.82;;;;;;;19.46;47.84;100169.09;5008926;28;20036;-68
2021/05/13 04:24:47;;;;;;;17.17;5.25;;;;;;;19.49;47.78;100169.22;5008289;28;20445;-68
2021/05/13 04:27:13;;;;;;;18.50;5.15;;;;;;;19.48;48.03;100155.75;5005582;28;20129;-68
2021/05/13 04:29:40;;;;;;;15.90;5.40;;;;;;;19.51;48.06;100161.38;5008617;28;20030;-69
2021/05/13 04:32:06;;;;;;;12.60;5.28;;;;;;;19.53;47.66;100153.53;5006098;28;20683;-67
2021/05/13 04:34:32;;;;;;;17.10;5.55;;;;;;;19.52;47.67;100156.66;5007031;28;20022;-66
2021/05/13 04:36:58;;;;;;;25.23;5.65;;;;;;;19.53;48.11;100152.75;5007069;28;20046;-68
2021/05/13 04:39:24;;;;;;;18.00;5.75;;;;;;;19.53;48.25;100150.78;5008588;28;20117;-67
2021/05/13 04:41:51;;;;;;;24.02;5.65;;;;;;;19.55;48.15;100139.38;5003742;28;20053;-68
2021/05/13 04:44:17;;;;;;;15.77;4.97;;;;;;;19.54;47.96;100135.03;5007608;28;20033;-68
2021/05/13 04:46:44;;;;;;;24.15;5.20;;;;;;;19.49;47.99;100133.34;5006538;28;20061;-69
2021/05/13 04:51:37;;;;;;;16.70;4.85;;;;;;;19.55;48.09;100139.38;5006461;28;20129;-67
2021/05/13 04:54:04;;;;;;;14.97;5.40;;;;;;;19.59;48.18;100139.50;5007935;28;20049;-67
2021/05/13 04:56:30;;;;;;;17.20;5.43;;;;;;;19.59;48.05;100126.47;5003713;28;20065;-67
2021/05/13 04:58:56;;;;;;;11.65;4.97;;;;;;;19.58;48.14;100126.84;5005521;28;20038;-68
2021/05/13 05:01:24;;;;;;;19.35;5.18;;;;;;;19.60;47.98;100114.28;5006686;28;20072;-67
2021/05/13 05:03:50;;;;;;;;;;;;;;;19.64;47.77;100117.16;5009772;28;20089;-69
2021/05/13 05:06:16;;;;;;;13.45;5.63;;;;;;;19.62;47.52;100111.97;5011757;28;20342;-67
2021/05/13 05:08:43;;;;;;;18.15;5.07;;;;;;;19.63;47.61;100110.03;5008769;28;20088;-67
2021/05/13 05:11:10;;;;;;;13.40;4.95;;;;;;;19.66;47.57;100112.06;5008745;28;20474;-67
2021/05/13 05:13:36;;;;;;;;;;;;;;;19.65;47.73;100110.47;5010092;28;20062;-67
2021/05/13 05:16:03;;;;;;;15.37;4.50;;;;;;;19.70;47.84;100108.22;5011534;28;19917;-67
2021/05/13 05:18:29;;;;;;;16.47;4.83;;;;;;;19.73;47.81;100103.97;5012620;28;20042;-66
2021/05/13 05:20:55;;;;;;;12.73;5.17;;;;;;;19.75;47.59;100098.09;5012815;28;20080;-66
2021/05/13 05:23:22;;;;;;;17.00;5.15;;;;;;;19.73;47.39;100103.16;5011822;28;20042;-65
2021/05/13 05:25:48;;;;;;;13.50;4.87;;;;;;;19.75;47.67;100100.84;5008247;28;20418;-66
2021/05/13 05:28:14;;;;;;;13.77;4.70;;;;;;;19.77;47.29;100099.34;5007410;28;20030;-66
2021/05/13 05:30:41;;;;;;;16.13;4.78;;;;;;;19.76;47.44;100099.69;5009094;28;20613;-66
2021/05/13 05:33:11;;;;;;;14.97;4.77;;;;;;;19.71;47.65;100103.53;5006705;28;20065;-67
2021/05/13 05:35:38;;;;;;;12.88;4.45;;;;;;;19.73;47.54;100098.44;5008584;28;20066;-68
2021/05/13 05:38:05;;;;;;;12.70;5.05;;;;;;;19.72;47.25;100102.38;5007664;28;20042;-66
2021/05/13 05:40:31;;;;;;;14.95;4.63;;;;;;;19.75;47.48;100095.31;5007452;28;20431;-67
2021/05/13 05:42:57;;;;;;;13.07;5.00;;;;;;;19.77;47.16;100096.56;5006430;28;20457;-66
2021/05/13 05:45:25;;;;;;;12.30;4.50;;;;;;;19.78;46.98;100098.19;5008278;28;20030;-67
2021/05/13 05:47:52;;;;;;;;;;;;;;;19.80;47.00;100087.59;5010755;28;20775;-66
2021/05/13 05:50:19;;;;;;;12.57;4.22;;;;;;;19.84;47.10;100085.72;5009874;28;20010;-67
2021/05/13 05:52:46;;;;;;;12.80;4.22;;;;;;;19.91;46.33;100093.38;5008120;28;20085;-67
2021/05/13 05:55:12;;;;;;;13.07;4.43;;;;;;;19.91;46.65;100098.13;5006656;28;20030;-67
2021/05/13 05:57:39;;;;;;;11.65;4.30;;;;;;;19.92;46.36;100089.47;5007970;28;20039;-68
2021/05/13 06:00:07;;;;;;;11.33;4.60;;;;;;;19.93;46.48;100090.25;5010128;28;20065;-66
2021/05/13 06:02:33;;;;;;;16.25;4.13;;;;;;;19.91;46.87;100092.59;5009233;28;20034;-68
2021/05/13 06:04:59;;;;;;;9.80;4.00;;;;;;;19.90;46.93;100086.28;5011859;28;20121;-67
2021/05/13 06:07:25;;;;;;;13.00;4.38;;;;;;;19.88;46.52;100081.09;5009454;28;20096;-67
2021/05/13 06:09:51;;;;;;;10.90;4.40;;;;;;;19.88;46.68;100072.03;5009660;28;20073;-67
2021/05/13 06:12:17;;;;;;;12.50;3.90;;;;;;;19.82;46.58;100081.75;5006356;28;20044;-67
2021/05/13 06:14:44;;;;;;;14.98;4.30;;;;;;;19.77;46.87;100081.97;5010244;28;20518;-67
2021/05/13 06:17:10;;;;;;;12.93;4.50;;;;;;;19.77;46.98;100074.50;5013504;28;20029;-68
2021/05/13 06:19:36;;;;;;;18.25;4.30;;;;;;;19.82;46.48;100081.75;5007652;28;20096;-68
2021/05/13 06:22:02;;;;;;;11.75;4.15;;;;;;;19.82;46.75;100070.69;5006855;28;20046;-68
2021/05/13 06:24:29;;;;;;;7.90;3.88;;;;;;;19.82;46.71;100071.50;5007170;28;20049;-67
2021/05/13 06:27:00;;;;;;;10.35;4.10;;;;;;;19.90;45.94;100064.19;5008389;28;20537;-67
2021/05/13 06:29:28;;;;;;;9.68;4.00;;;;;;;19.93;46.30;100065.41;5007347;28;20040;-67
2021/05/13 06:31:54;;;;;;;9.38;3.80;;;;;;;20.03;46.08;100059.34;5006134;28;20045;-68
2021/05/13 06:34:20;;;;;;;10.60;3.97;;;;;;;20.10;46.13;100059.50;5010363;28;20042;-68
2021/05/13 06:36:46;;;;;;;9.23;3.78;;;;;;;20.14;45.75;100065.91;5009608;28;20899;-67
2021/05/13 06:39:13;;;;;;;10.55;4.30;;;;;;;20.16;45.98;100068.31;5006915;28;20390;-68
2021/05/13 06:41:41;;;;;;;8.88;3.80;;;;;;;20.13;46.42;100066.28;5011729;28;20153;-67
2021/05/13 06:44:08;;;;;;;10.48;3.80;;;;;;;20.05;46.44;100059.78;5009944;28;20034;-68
2021/05/13 06:46:34;;;;;;;10.68;3.80;;;;;;;19.97;46.32;100058.84;5006864;28;20037;-66
2021/05/13 06:49:00;;;;;;;12.40;4.88;;;;;;;19.93;46.61;100054.38;5007566;28;20030;-67
2021/05/13 06:51:26;;;;;;;10.43;3.83;;;;;;;19.91;46.81;100059.47;5008581;28;20037;-66
2021/05/13 06:53:53;;;;;;;12.52;4.35;;;;;;;19.93;46.53;100051.59;5011502;28;20355;-68
2021/05/13 06:56:21;;;;;;;13.48;4.75;;;;;;;19.95;46.44;100061.13;5008318;28;20034;-67
2021/05/13 06:58:47;;;;;;;13.27;3.70;;;;;;;19.94;46.60;100061.50;5010792;28;20041;-68
2021/05/13 07:01:14;;;;;;;13.63;3.97;;;;;;;19.92;46.76;100058.31;5008844;28;20107;-67
2021/05/13 07:03:40;;;;;;;15.60;3.95;;;;;;;19.93;46.82;100057.13;5012429;28;20052;-66
2021/05/13 07:06:06;;;;;;;10.77;7.30;;;;;;;18.64;46.85;100072.69;5013515;28;20042;-70
2021/05/13 07:08:32;;;;;;;11.73;6.32;;;;;;;16.36;54.61;100079.91;5017171;28;20702;-70
2021/05/13 07:10:59;;;;;;;12.93;7.65;;;;;;;14.07;60.97;100086.13;5009696;28;20030;-70
2021/05/13 07:13:26;;;;;;;13.20;7.85;;;;;;;13.47;63.03;100082.06;5010497;28;20088;-69
2021/05/13 07:15:52;;;;;;;15.00;7.27;;;;;;;13.61;63.47;100085.50;5026942;28;20048;-69
2021/05/13 07:18:19;;;;;;;11.68;7.40;;;;;;;13.46;64.03;100085.91;5010390;28;20034;-70
2021/05/13 07:20:46;;;;;;;12.77;7.50;;;;;;;12.64;67.35;100092.25;5013858;28;20100;-69
2021/05/13 07:23:13;;;;;;;11.85;7.93;;;;;;;12.52;68.62;100083.78;5012468;28;20406;-70
2021/05/13 07:25:43;;;;;;;16.40;8.10;;;;;;;12.60;68.55;100088.50;4992326;28;20044;-69
2021/05/13 07:28:10;;;;;;;13.20;8.20;;;;;;;12.42;68.83;100082.09;5010823;28;20049;-69
2021/05/13 07:30:36;;;;;;;12.15;7.93;;;;;;;12.82;67.60;100090.47;5003010;28;20410;-70
2021/05/13 07:33:03;;;;;;;14.02;8.65;;;;;;;12.86;67.14;100079.72;5006201;28;20033;-70
2021/05/13 07:35:29;;;;;;;16.50;9.48;;;;;;;12.69;68.04;100081.22;5010490;28;20128;-70
2021/05/13 07:37:55;;;;;;;14.55;8.75;;;;;;;12.47;69.59;100072.97;5012015;28;20470;-69
2021/05/13 07:40:23;;;;;;;15.27;9.45;;;;;;;12.21;70.48;100079.00;5005522;28;20397;-70
2021/05/13 07:42:50;;;;;;;14.10;8.18;;;;;;;12.08;71.20;100073.25;5025182;28;20081;-70
2021/05/13 07:45:17;;;;;;;17.60;8.83;;;;;;;12.72;68.79;100066.94;5003343;28;20034;-70
2021/05/13 07:47:43;;;;;;;15.13;8.15;;;;;;;12.90;67.80;100069.81;5004559;28;20112;-71
2021/05/13 07:50:15;;;;;;;13.15;8.40;;;;;;;12.37;70.11;100072.09;5007709;28;20038;-70
2021/05/13 07:52:43;;;;;;;16.38;8.13;;;;;;;12.66;68.48;100073.63;5005754;28;20049;-70
2021/05/13 07:55:10;;;;;;;13.18;7.35;;;;;;;12.24;69.81;100076.44;5006766;28;20037;-70
2021/05/13 07:57:36;;;;;;;15.60;8.30;;;;;;;12.12;70.17;100078.91;5023252;28;20041;-70
2021/05/13 08:00:05;;;;;;;13.32;7.53;;;;;;;12.56;69.45;100074.66;5008723;28;20074;-70
2021/05/13 08:02:31;;;;;;;14.13;8.20;;;;;;;12.29;70.07;100080.19;5003492;28;20044;-70
2021/05/13 08:04:57;;;;;;;13.88;8.63;;;;;;;12.41;69.16;100080.47;5013506;28;20116;-71
2021/05/13 08:07:23;;;;;;;14.68;8.05;;;;;;;11.89;71.65;100089.69;5006106;28;20045;-70
2021/05/13 08:09:50;;;;;;;20.73;11.07;;;;;;;11.65;72.75;100084.41;5026574;28;20044;-70
2021/05/13 08:12:17;;;;;;;14.03;8.53;;;;;;;12.04;72.00;100079.59;5008986;28;20112;-70
2021/05/13 08:14:46;;;;;;;16.75;9.68;;;;;;;12.27;70.80;100090.63;5005908;28;20641;-70
2021/05/13 08:17:13;;;;;;;14.38;8.88;;;;;;;12.58;68.94;100083.34;5003633;28;20049;-70
2021/05/13 08:19:39;;;;;;;;;;;;;;;12.18;71.21;100087.78;5005530;28;20189;-70
2021/05/13 08:22:06;;;;;;;11.85;7.30;;;;;;;12.21;70.19;100084.47;5021681;28;20343;-70
2021/05/13 08:24:32;;;;;;;12.30;7.10;;;;;;;12.32;69.87;100085.84;4998676;28;20065;-70
2021/05/13 08:27:01;;;;;;;12.50;7.47;;;;;;;12.07;69.87;100079.81;5021865;28;20033;-70
2021/05/13 08:29:30;;;;;;;12.02;7.30;;;;;;;12.20;70.33;100082.84;5005778;28;20025;-69
2021/05/13 08:31:59;;;;;;;17.52;8.40;;;;;;;12.23;70.97;100079.50;5017193;28;20069;-70
2021/05/13 08:34:25;;;;;;;15.77;8.15;;;;;;;12.22;69.76;100092.34;5009862;28;20042;-70
2021/05/13 08:36:54;;;;;;;14.77;8.70;;;;;;;12.55;70.20;100075.78;5006285;28;20049;-64
2021/05/13 08:39:21;;;;;;;16.10;9.35;;;;;;;13.88;65.35;100078.19;4995285;28;20038;-63
2021/05/13 08:41:47;;;;;;;15.75;9.82;;;;;;;15.30;59.83;100076.03;5008627;28;20033;-64
2021/05/13 08:44:13;;;;;;;16.08;9.32;;;;;;;16.67;55.20;100076.78;5005125;28;20549;-64
2021/05/13 08:46:40;;;;;;;18.33;9.63;;;;;;;17.19;52.86;100074.72;5014065;28;20034;-65
2021/05/13 08:49:07;;;;;;;22.97;10.80;;;;;;;17.25;53.44;100067.88;5000749;28;20385;-66
2021/05/13 08:51:33;;;;;;;30.30;10.50;;;;;;;17.99;50.39;100067.16;5001693;28;20453;-67
2021/05/13 08:54:01;;;;;;;35.13;12.30;;;;;;;18.61;49.97;100061.53;5005595;28;20042;-66
2021/05/13 08:56:28;;;;;;;25.90;10.98;;;;;;;18.52;49.81;100058.94;5003454;28;20053;-66
2021/05/13 08:59:02;;;;;;;31.70;11.00;;;;;;;18.93;48.59;100059.72;5003145;28;20096;-63
2021/05/13 09:01:28;;;;;;;29.92;10.05;;;;;;;18.61;49.27;100065.09;5002880;28;20042;-64
2021/05/13 09:03:55;;;;;;;41.28;12.85;;;;;;;18.87;48.63;100063.84;5002841;28;20038;-65
2021/05/13 09:06:27;;;;;;;31.05;10.60;;;;;;;18.95;48.39;100053.88;5006233;28;20033;-65
2021/05/13 09:09:07;;;;;;;23.83;9.63;;;;;;;19.45;47.06;100052.41;5004492;28;20955;-65
2021/05/13 09:11:33;;;;;;;20.55;8.60;;;;;;;18.00;50.34;100055.81;5004988;28;20038;-66
2021/05/13 09:14:01;;;;;;;22.80;9.23;;;;;;;18.43;49.87;100058.25;5007218;28;20046;-64
2021/05/13 09:16:35;;;;;;;19.70;8.68;;;;;;;18.67;49.03;100057.38;5004685;28;20520;-65
2021/05/13 09:19:19;;;;;;;24.35;8.65;;;;;;;19.32;47.28;100059.16;5007712;28;20042;-65
2021/05/13 09:22:05;;;;;;;16.80;7.05;;;;;;;19.57;46.48;100056.22;5007206;28;20041;-66
2021/05/13 09:24:45;;;;;;;18.65;9.73;;;;;;;19.83;45.63;100050.19;5002632;28;20116;-65
2021/05/13 09:27:23;;;;;;;22.13;12.07;;;;;;;19.70;46.30;100055.00;5004754;28;20053;-66
2021/05/13 09:30:05;;;;;;;24.17;13.32;;;;;;;19.14;47.10;100055.94;5006183;28;20075;-64
2021/05/13 09:32:31;;;;;;;21.35;12.70;;;;;;;18.73;48.69;100057.94;5004825;28;20141;-65
2021/05/13 09:35:17;;;;;;;18.67;12.40;;;;;;;17.96;50.40;100051.34;5005822;28;20038;-64
2021/05/13 09:37:55;;;;;;;25.58;17.08;;;;;;;18.89;48.15;100055.25;5004834;28;20069;-65
2021/05/13 09:40:39;;;;;;;27.85;17.83;;;;;;;18.21;50.39;100052.09;5005626;28;20048;-64
2021/05/13 09:43:13;;;;;;;15.52;11.40;;;;;;;17.97;50.97;100050.19;5005728;28;20034;-64
2021/05/13 09:45:50;;;;;;;20.15;12.18;;;;;;;17.81;51.55;100055.56;5007764;28;20045;-65
2021/05/13 09:48:38;;;;;;;26.95;18.33;;;;;;;19.20;48.09;100052.56;5006704;28;20034;-66
2021/05/13 09:51:22;;;;;;;21.42;12.13;;;;;;;18.62;48.87;100063.16;5011898;28;20046;-64
2021/05/13 09:54:12;;;;;;;25.35;16.88;;;;;;;18.62;48.78;100054.88;5006893;28;20034;-64
2021/05/13 09:56:47;;;;;;;21.45;15.00;;;;;;;18.77;48.75;100051.38;5000431;28;20045;-67
2021/05/13 09:59:22;;;;;;;9.75;7.32;;;;;;;18.32;49.24;100053.22;4999286;28;20197;-66
2021/05/13 10:01:50;;;;;;;12.35;8.88;;;;;;;18.39;49.21;100049.88;5003293;28;20588;-65
2021/05/13 10:04:16;;;;;;;19.35;13.75;;;;;;;19.28;47.55;100050.00;5010446;28;20040;-65
2021/05/13 10:06:42;;;;;;;18.42;12.10;;;;;;;19.69;46.56;100048.69;5008367;28;20546;-65
2021/05/13 10:09:09;;;;;;;16.08;11.23;;;;;;;19.09;47.64;100048.72;5008982;28;20022;-66
2021/05/13 10:11:35;;;;;;;14.90;10.18;;;;;;;19.21;47.48;100045.09;5007090;28;20042;-65
2021/05/13 10:14:02;;;;;;;11.95;8.13;;;;;;;19.22;46.76;100046.69;5009164;28;20049;-65
2021/05/13 10:16:29;;;;;;;17.95;11.80;;;;;;;18.52;49.02;100032.19;5009741;28;20037;-64
2021/05/13 10:19:12;;;;;;;16.70;10.65;;;;;;;18.68;48.83;100042.44;5007195;28;20039;-66
2021/05/13 10:21:41;;;;;;;23.52;16.52;;;;;;;18.53;49.30;100039.31;5004153;28;20042;-65
2021/05/13 10:24:08;;;;;;;10.80;8.43;;;;;;;18.77;48.47;100037.59;5002845;28;20096;-64
2021/05/13 10:26:35;;;;;;;25.38;20.05;;;;;;;19.60;46.43;100033.47;5005508;28;20033;-63
2021/05/13 10:29:22;;;;;;;26.38;18.17;;;;;;;19.26;47.31;100036.56;5007001;28;20428;-63
2021/05/13 10:32:00;;;;;;;19.83;15.32;;;;;;;19.27;47.34;100034.63;5005020;28;20073;-63
2021/05/13 10:34:44;;;;;;;29.42;23.88;;;;;;;19.83;46.23;100026.16;5006589;28;20048;-63
2021/05/13 10:37:10;;;;;;;31.55;23.65;;;;;;;20.31;44.97;100016.94;5005545;28;20096;-64
2021/05/13 10:39:37;;;;;;;29.65;23.10;;;;;;;20.25;45.18;100023.94;5007420;28;20044;-63
2021/05/13 10:42:28;;;;;;;31.85;25.25;;;;;;;20.50;44.46;100016.94;5008713;28;20034;-62
2021/05/13 10:44:54;;;;;;;30.80;25.00;;;;;;;20.54;44.39;100019.78;5007190;28;20172;-63
2021/05/13 10:47:28;;;;;;;21.38;17.05;;;;;;;20.35;44.87;100015.06;5007516;28;20461;-63
2021/05/13 10:49:55;;;;;;;30.63;24.13;;;;;;;20.43;44.69;100016.00;5007290;28;20022;-63
2021/05/13 10:52:38;;;;;;;28.33;21.95;;;;;;;19.77;46.51;100018.47;5008691;28;20477;-63
2021/05/13 10:55:06;;;;;;;17.70;13.18;;;;;;;19.87;46.15;100013.25;5008829;28;20046;-65
2021/05/13 10:57:49;;;;;;;22.55;17.77;;;;;;;20.10;45.90;100012.56;5007268;28;20078;-64
2021/05/13 11:00:18;;;;;;;27.13;19.55;;;;;;;20.31;45.16;100011.41;5002475;28;20049;-62
2021/05/13 11:02:46;;;;;;;10.50;7.78;;;;;;;19.98;45.59;100013.50;5002794;28;20442;-63
2021/05/13 11:05:27;;;;;;;17.73;11.32;;;;;;;19.93;46.07;100019.28;5006081;28;20030;-65
2021/05/13 11:08:03;;;;;;;23.67;18.45;;;;;;;20.26;45.22;100014.47;5006242;28;20038;-64
2021/05/13 11:10:47;;;;;;;23.92;15.02;;;;;;;20.97;43.21;100020.66;5003951;28;20112;-62
2021/05/13 11:20:57;;;;;;;8.02;4.32;;;;;;;14.00;66.19;100061.97;5054545;28;20551;-82
2021/05/13 11:23:31;;;;;;;6.75;4.40;;;;;;;12.24;71.91;100054.63;5039183;28;20077;-83
2021/05/13 11:26:10;;;;;;;8.75;5.25;;;;;;;11.69;76.98;100057.38;5061036;28;20032;-82
2021/05/13 11:28:46;;;;;;;8.77;5.35;;;;;;;11.35;78.26;100053.09;5051084;28;20032;-82
2021/05/13 11:31:19;;;;;;;9.63;5.57;;;;;;;11.07;78.40;100055.78;5044244;28;20493;-83
2021/05/13 11:33:57;;;;;;;8.38;5.25;;;;;;;11.02;80.38;100055.84;5016154;28;62988;-83
2021/05/13 11:37:39;;;;;;;9.20;5.88;;;;;;;10.87;82.08;100055.00;5074557;27;20359;-83